Time;durP1;ratioP1;P1;durP2;ratioP2;P2;SDS_P1;SDS_P2;PMS_P1;PMS_P2;Temp;Humidity;BMP_temperature;BMP_pressure;BME280_temperature;BME280_humidity;BME280_pressure;Samples;Min_cycle;Max_cycle;Signal;HPM_P1;HPM_P2
2023/08/16 00:01:37;;;;;;;10.02;9.13;;;;;;;23.34;90.53;99677.13;5016383;28;20030;-90
2023/08/16 00:04:02;;;;;;;9.40;8.60;;;;;;;23.41;90.60;99692.31;5016060;28;20029;-90
2023/08/16 00:06:27;;;;;;;9.55;8.75;;;;;;;23.37;90.45;99690.94;5016170;28;20083;-90
2023/08/16 00:08:58;;;;;;;9.65;8.65;;;;;;;23.32;90.85;99698.56;5015612;28;20029;-90
2023/08/16 00:11:23;;;;;;;8.80;8.00;;;;;;;23.28;90.98;99691.88;5016179;28;20043;-90
2023/08/16 00:13:49;;;;;;;10.27;9.38;;;;;;;23.25;90.97;99701.97;5015777;28;20033;-90
2023/08/16 00:16:14;;;;;;;9.18;8.38;;;;;;;23.19;90.82;99698.09;5016037;28;20033;-90
2023/08/16 00:18:40;;;;;;;10.52;9.30;;;;;;;23.16;91.35;99704.53;5015968;28;20060;-90
2023/08/16 00:21:05;;;;;;;11.20;10.10;;;;;;;23.16;91.26;99704.53;5015647;28;20380;-90
2023/08/16 00:23:30;;;;;;;10.30;9.25;;;;;;;23.12;91.69;99711.13;5015670;28;20136;-90
2023/08/16 00:25:56;;;;;;;10.10;9.18;;;;;;;23.07;92.08;99710.75;5015469;28;20087;-90
2023/08/16 00:28:22;;;;;;;10.23;9.30;;;;;;;23.06;92.04;99709.09;5015870;28;20448;-90
2023/08/16 00:30:53;;;;;;;10.23;9.32;;;;;;;23.01;91.65;99702.56;5015509;28;20029;-90
2023/08/16 00:33:19;;;;;;;;;;;;;;;22.98;91.99;99716.13;5016033;28;20025;-90
2023/08/16 00:35:44;;;;;;;10.57;9.57;;;;;;;22.93;91.89;99705.97;5033283;28;19920;-90
2023/08/16 00:38:10;;;;;;;9.55;8.65;;;;;;;22.88;92.48;99713.50;5014846;28;20080;-90
2023/08/16 00:40:35;;;;;;;10.05;9.25;;;;;;;22.86;93.17;99708.34;5015633;28;20067;-90
2023/08/16 00:43:00;;;;;;;10.20;9.30;;;;;;;22.80;93.41;99708.94;5015416;28;20025;-90
2023/08/16 00:45:26;;;;;;;10.45;9.45;;;;;;;22.71;93.67;99699.19;5015523;28;20547;-90
2023/08/16 00:47:51;;;;;;;10.88;9.82;;;;;;;22.71;93.51;99701.00;5015171;28;20120;-90
2023/08/16 00:50:18;;;;;;;10.40;9.50;;;;;;;22.74;93.78;99714.00;5011869;28;20046;-90
2023/08/16 00:52:44;;;;;;;11.30;10.30;;;;;;;22.74;94.17;99717.50;5011817;28;20030;-90
2023/08/16 00:55:09;;;;;;;10.70;9.70;;;;;;;22.69;95.06;99718.91;5011823;28;20531;-90
2023/08/16 00:57:35;;;;;;;10.63;9.52;;;;;;;22.66;94.87;99728.00;5012051;28;20022;-90
2023/08/16 01:00:00;;;;;;;9.88;8.98;;;;;;;22.59;94.67;99725.13;5011797;28;20026;-90
2023/08/16 01:02:26;;;;;;;10.43;9.52;;;;;;;22.52;94.81;99723.19;5011769;28;20692;-90
2023/08/16 01:04:51;;;;;;;11.32;10.35;;;;;;;22.51;95.19;99727.66;5011588;28;20053;-90
2023/08/16 01:07:16;;;;;;;10.85;9.85;;;;;;;22.45;95.25;99730.88;5011690;28;20389;-90
2023/08/16 01:09:42;;;;;;;10.50;9.48;;;;;;;22.48;95.18;99737.72;5011602;28;20523;-90
2023/08/16 01:12:13;;;;;;;11.50;10.30;;;;;;;22.42;95.35;99739.16;5011639;28;20076;-90
2023/08/16 01:14:52;;;;;;;10.77;9.80;;;;;;;22.37;95.50;99731.59;5011770;28;20499;-90
2023/08/16 01:17:21;;;;;;;10.90;9.80;;;;;;;22.23;95.68;99715.34;5011737;28;20557;-90
2023/08/16 01:19:48;;;;;;;11.32;10.05;;;;;;;22.32;95.86;99738.34;5011516;28;20038;-90
2023/08/16 01:22:37;;;;;;;10.23;9.38;;;;;;;22.28;96.11;99735.13;5011363;28;20030;-90
2023/08/16 01:25:21;;;;;;;10.73;9.75;;;;;;;22.28;97.10;99739.59;5011370;28;20033;-90
2023/08/16 01:27:51;;;;;;;11.50;10.40;;;;;;;22.18;98.37;99737.00;5010008;28;20080;-90
2023/08/16 01:30:17;;;;;;;10.93;10.02;;;;;;;22.09;98.07;99749.28;5010301;28;20129;-90
2023/08/16 01:32:43;;;;;;;10.60;9.70;;;;;;;22.08;98.24;99742.28;4993628;28;20505;-90
2023/08/16 01:35:08;;;;;;;11.18;10.15;;;;;;;22.08;98.16;99736.13;5009771;28;20060;-90
2023/08/16 01:37:34;;;;;;;12.07;9.95;;;;;;;22.07;97.55;99732.66;4993770;28;20103;-90
2023/08/16 01:40:03;;;;;;;11.40;10.40;;;;;;;21.99;97.83;99723.72;4993407;28;20397;-90
2023/08/16 01:42:30;;;;;;;12.27;10.38;;;;;;;21.92;97.97;99728.78;5010054;28;20169;-90
2023/08/16 01:44:59;;;;;;;12.07;10.23;;;;;;;21.94;98.05;99732.13;4993204;28;20121;-90
2023/08/16 01:47:26;;;;;;;10.60;9.68;;;;;;;21.93;98.70;99735.75;4993473;28;20049;-90
2023/08/16 01:49:52;;;;;;;11.40;10.40;;;;;;;21.88;98.57;99733.53;4969997;28;20105;-90
2023/08/16 01:52:17;;;;;;;11.23;10.23;;;;;;;21.85;98.93;99733.81;4970490;28;20500;-90
2023/08/16 01:54:43;;;;;;;13.00;10.50;;;;;;;21.78;99.17;99732.69;4970762;28;20122;-90
2023/08/16 01:57:08;;;;;;;11.27;10.27;;;;;;;21.66;99.31;99713.47;4954413;28;20394;-90
2023/08/16 01:59:33;;;;;;;11.63;10.52;;;;;;;21.77;99.69;99736.31;4970453;28;20499;-90
2023/08/16 02:01:59;;;;;;;11.60;10.52;;;;;;;21.76;99.80;99731.19;4989938;28;20030;-90
2023/08/16 02:04:25;;;;;;;11.80;10.55;;;;;;;21.67;99.62;99728.38;4973881;28;20042;-90
2023/08/16 02:06:50;;;;;;;11.43;10.43;;;;;;;21.68;99.95;99732.69;4990123;28;20440;-90
2023/08/16 02:09:15;;;;;;;12.00;10.63;;;;;;;21.57;100.00;99721.41;4989801;28;20149;-89
2023/08/16 02:11:41;;;;;;;11.55;10.45;;;;;;;21.57;100.00;99724.06;4973686;28;20037;-89
2023/08/16 02:14:06;;;;;;;11.70;10.60;;;;;;;21.50;100.00;99717.66;4989764;28;20030;-90
2023/08/16 02:16:31;;;;;;;12.52;11.38;;;;;;;21.37;100.00;99702.88;4989951;28;20609;-90
2023/08/16 02:18:57;;;;;;;12.18;11.07;;;;;;;21.39;100.00;99708.84;4989825;28;20122;-90
2023/08/16 02:21:22;;;;;;;12.00;10.90;;;;;;;21.38;100.00;99715.13;4999162;28;20045;-89
2023/08/16 02:23:47;;;;;;;12.45;11.10;;;;;;;21.38;100.00;99709.00;5010787;28;20041;-90
2023/08/16 02:26:13;;;;;;;11.57;10.48;;;;;;;21.45;100.00;99711.91;5010487;28;20033;-90
2023/08/16 02:28:38;;;;;;;11.30;10.30;;;;;;;21.41;100.00;99706.91;5011971;28;20040;-90
2023/08/16 02:31:05;;;;;;;11.85;10.60;;;;;;;21.40;100.00;99710.53;5010767;28;20316;-90
2023/08/16 02:33:31;;;;;;;11.95;10.75;;;;;;;21.42;100.00;99713.88;5010840;28;20065;-90
2023/08/16 02:35:56;;;;;;;11.70;10.68;;;;;;;21.42;100.00;99721.84;5010434;28;20026;-90
2023/08/16 02:38:22;;;;;;;11.55;10.55;;;;;;;21.42;100.00;99718.34;5012105;28;20109;-90
2023/08/16 02:40:47;;;;;;;12.50;11.40;;;;;;;21.36;100.00;99713.59;5010485;28;20018;-89
2023/08/16 02:43:12;;;;;;;12.57;11.30;;;;;;;21.35;100.00;99720.72;5010264;28;20045;-89
2023/08/16 02:45:38;;;;;;;12.48;11.20;;;;;;;21.34;100.00;99726.16;5010724;28;20033;-90
2023/08/16 02:48:03;;;;;;;12.02;10.80;;;;;;;21.31;100.00;99729.88;5010430;28;20034;-89
2023/08/16 02:50:29;;;;;;;13.45;11.50;;;;;;;21.31;100.00;99737.00;5010256;28;20050;-90
2023/08/16 02:52:55;;;;;;;12.90;11.70;;;;;;;21.30;100.00;99735.31;5010381;28;20488;-90
2023/08/16 02:55:20;;;;;;;12.45;11.25;;;;;;;21.20;100.00;99723.88;5011460;28;20091;-90
2023/08/16 02:57:45;;;;;;;12.63;11.38;;;;;;;21.25;100.00;99727.78;5010411;28;20033;-89
2023/08/16 03:00:12;;;;;;;14.13;11.77;;;;;;;21.22;100.00;99727.22;5011970;28;20049;-89
2023/08/16 03:02:37;;;;;;;12.73;11.50;;;;;;;21.17;100.00;99732.94;5012722;28;20025;-89
2023/08/16 03:05:03;;;;;;;12.82;11.52;;;;;;;21.10;100.00;99756.47;5012403;28;20405;-90
2023/08/16 03:07:29;;;;;;;12.52;10.95;;;;;;;21.07;100.00;99737.34;5012759;28;20409;-89
2023/08/16 03:09:54;;;;;;;12.80;11.63;;;;;;;21.03;100.00;99754.53;4996271;28;20046;-90
2023/08/16 03:12:19;;;;;;;11.90;10.80;;;;;;;21.03;100.00;99749.22;4996107;28;20607;-90
2023/08/16 03:14:45;;;;;;;13.27;12.07;;;;;;;20.98;100.00;99748.78;4996154;28;20513;-89
2023/08/16 03:17:10;;;;;;;12.98;11.57;;;;;;;20.85;100.00;99747.19;4995984;28;20087;-90
2023/08/16 03:19:36;;;;;;;12.82;11.73;;;;;;;20.86;100.00;99742.78;4996093;28;20038;-90
2023/08/16 03:22:02;;;;;;;11.55;10.55;;;;;;;20.67;100.00;99719.72;4995852;28;20026;-89
2023/08/16 03:24:28;;;;;;;12.43;11.13;;;;;;;20.84;100.00;99753.47;4996088;28;20111;-90
2023/08/16 03:26:53;;;;;;;13.00;11.68;;;;;;;20.83;100.00;99749.16;4996066;28;20026;-90
2023/08/16 03:29:19;;;;;;;13.32;11.75;;;;;;;20.83;100.00;99754.47;4995796;28;20037;-90
2023/08/16 03:31:44;;;;;;;12.43;11.40;;;;;;;20.76;100.00;99755.97;5012430;28;20041;-89
2023/08/16 03:34:10;;;;;;;12.48;11.20;;;;;;;20.81;100.00;99763.50;4995628;28;20037;-90
2023/08/16 03:36:35;;;;;;;12.98;11.88;;;;;;;20.65;100.00;99737.56;5007949;28;20069;-90
2023/08/16 03:39:05;;;;;;;13.55;11.80;;;;;;;20.81;100.00;99766.13;5013095;28;20544;-90
2023/08/16 03:41:30;;;;;;;13.25;11.95;;;;;;;20.78;100.00;99755.84;5013320;28;20025;-90
2023/08/16 03:43:56;;;;;;;12.65;11.45;;;;;;;20.81;100.00;99759.03;5014623;28;20041;-90
2023/08/16 03:46:21;;;;;;;13.75;12.52;;;;;;;20.82;100.00;99759.91;5013334;28;20477;-90
2023/08/16 03:48:46;;;;;;;13.32;12.05;;;;;;;20.81;100.00;99763.50;5014756;28;20465;-90
2023/08/16 03:51:12;;;;;;;13.88;12.55;;;;;;;20.75;100.00;99766.69;5012727;28;20607;-90
2023/08/16 03:53:37;;;;;;;12.60;11.60;;;;;;;20.72;100.00;99770.44;5013212;28;20420;-90
2023/08/16 03:56:02;;;;;;;15.10;12.05;;;;;;;20.75;100.00;99772.81;5011499;28;20141;-91
2023/08/16 03:58:28;;;;;;;13.77;12.35;;;;;;;20.71;100.00;99763.47;4995365;28;20037;-90
2023/08/16 04:00:54;;;;;;;14.05;12.57;;;;;;;20.43;100.00;99714.69;4995351;28;20038;-90
2023/08/16 04:03:20;;;;;;;12.93;11.82;;;;;;;20.79;100.00;99776.03;4991742;28;20046;-90
2023/08/16 04:05:46;;;;;;;15.30;13.82;;;;;;;20.83;100.00;99775.63;4976915;28;20445;-89
2023/08/16 04:08:11;;;;;;;13.30;12.00;;;;;;;20.76;100.00;99761.25;4991857;28;20483;-95
2023/08/16 04:34:26;;;;;;;15.18;13.48;;;;;;;21.88;100.00;99783.91;4944057;29;20089;-93
2023/08/16 04:36:51;;;;;;;14.45;13.15;;;;;;;21.93;100.00;99794.09;4936852;29;20482;-92
2023/08/16 04:39:18;;;;;;;12.60;11.40;;;;;;;21.96;100.00;99790.34;4936518;29;20062;-93
2023/08/16 04:41:44;;;;;;;15.30;12.90;;;;;;;22.07;100.00;99796.31;4936648;29;20126;-93
2023/08/16 04:44:09;;;;;;;12.80;11.60;;;;;;;22.05;100.00;99798.28;4951215;28;20132;-92
2023/08/16 04:46:34;;;;;;;12.90;11.63;;;;;;;22.13;100.00;99801.09;5012103;28;20389;-93
2023/08/16 04:49:00;;;;;;;12.30;11.10;;;;;;;22.23;100.00;99793.09;5013224;28;20022;-88
2023/08/16 04:51:26;;;;;;;12.95;11.55;;;;;;;22.58;100.00;99803.06;5015056;28;20025;-89
2023/08/16 04:53:52;;;;;;;13.63;12.15;;;;;;;22.89;99.69;99773.63;5015159;28;20029;-88
2023/08/16 04:56:17;;;;;;;11.88;10.75;;;;;;;23.63;97.30;99794.69;5032987;28;20384;-89
2023/08/16 04:58:42;;;;;;;12.20;11.00;;;;;;;24.72;91.93;99809.53;5032895;28;20029;-89
2023/08/16 05:01:09;;;;;;;11.38;10.27;;;;;;;25.85;87.63;99797.59;5015188;28;20120;-89
2023/08/16 05:03:34;;;;;;;12.52;11.20;;;;;;;26.88;83.37;99811.13;5015347;28;20029;-89
2023/08/16 05:06:01;;;;;;;11.05;10.00;;;;;;;27.09;81.29;99797.19;5015214;28;20025;-88
2023/08/16 05:08:27;;;;;;;12.60;11.43;;;;;;;26.96;81.56;99819.13;5014937;28;20087;-88
2023/08/16 05:10:52;;;;;;;11.18;10.15;;;;;;;26.71;82.14;99809.53;5032958;28;20420;-88
2023/08/16 05:13:17;;;;;;;11.00;10.05;;;;;;;26.62;82.46;99825.56;5014531;28;20051;-88
2023/08/16 05:15:44;;;;;;;11.52;10.43;;;;;;;26.67;82.75;99825.06;5015078;28;20030;-88
2023/08/16 05:18:09;;;;;;;11.38;10.25;;;;;;;26.98;80.88;99814.44;5014786;28;20034;-88
2023/08/16 05:20:35;;;;;;;11.32;10.38;;;;;;;27.85;78.43;99820.53;5014932;28;20592;-88
2023/08/16 05:23:00;;;;;;;11.57;9.98;;;;;;;28.90;75.09;99825.03;5032573;28;20037;-88
2023/08/16 05:25:26;;;;;;;11.05;10.15;;;;;;;29.49;73.45;99827.66;5032172;28;20025;-88
2023/08/16 05:27:51;;;;;;;11.90;10.85;;;;;;;29.23;73.71;99819.31;5014485;28;20123;-88
2023/08/16 05:30:17;;;;;;;12.07;10.82;;;;;;;28.87;74.31;99830.81;5032574;28;20064;-88
2023/08/16 05:32:42;;;;;;;11.90;10.45;;;;;;;28.51;75.65;99833.38;5014736;28;20394;-88
2023/08/16 05:35:07;;;;;;;11.80;10.32;;;;;;;28.25;76.49;99833.75;5014393;28;20198;-89
2023/08/16 05:37:33;;;;;;;11.95;10.73;;;;;;;28.29;76.27;99827.84;5014544;28;20079;-88
2023/08/16 05:39:58;;;;;;;11.10;10.00;;;;;;;28.81;75.34;99840.41;5032266;28;20033;-88
2023/08/16 05:42:26;;;;;;;12.57;11.32;;;;;;;29.23;74.03;99830.03;5014160;28;20080;-88
2023/08/16 05:44:51;;;;;;;12.07;11.07;;;;;;;29.24;74.22;99845.94;5014613;28;20029;-88
2023/08/16 05:47:17;;;;;;;10.52;9.52;;;;;;;28.98;75.18;99845.59;5014221;28;20033;-88
2023/08/16 05:49:42;;;;;;;12.27;11.18;;;;;;;28.74;75.61;99841.34;5031986;28;20045;-88
2023/08/16 05:52:07;;;;;;;12.82;11.82;;;;;;;28.50;76.57;99840.56;5032130;28;20091;-89
2023/08/16 05:54:33;;;;;;;13.10;11.85;;;;;;;28.32;78.17;99846.25;5014267;28;20393;-88
2023/08/16 05:56:58;;;;;;;12.18;11.07;;;;;;;28.35;77.99;99850.38;5031909;28;20029;-88
2023/08/16 05:59:23;;;;;;;11.65;10.75;;;;;;;28.33;78.65;99844.41;5014149;28;20064;-88
2023/08/16 06:01:49;;;;;;;11.75;10.73;;;;;;;28.41;78.33;99830.13;5031809;28;20053;-88
2023/08/16 06:04:14;;;;;;;12.00;10.98;;;;;;;28.50;78.02;99829.84;5014020;28;20033;-88
2023/08/16 06:06:39;;;;;;;12.70;11.68;;;;;;;28.68;78.30;99864.34;5014257;28;20473;-88
2023/08/16 06:09:05;;;;;;;12.18;11.07;;;;;;;28.74;78.71;99868.97;5031930;28;20034;-88
2023/08/16 06:11:30;;;;;;;12.80;11.75;;;;;;;28.82;78.47;99871.56;5031602;28;20496;-88
2023/08/16 06:13:56;;;;;;;12.10;11.10;;;;;;;28.94;78.15;99879.97;5014205;28;20480;-88
2023/08/16 06:16:21;;;;;;;13.65;12.35;;;;;;;28.98;77.45;99865.19;5013968;28;20084;-88
2023/08/16 06:18:47;;;;;;;12.20;11.20;;;;;;;28.99;78.04;99853.47;5031930;28;20086;-88
2023/08/16 06:21:12;;;;;;;13.45;12.15;;;;;;;29.16;77.46;99851.44;5031626;28;20113;-88
2023/08/16 06:23:39;;;;;;;13.80;12.30;;;;;;;29.22;77.60;99845.31;5032131;28;20034;-88
2023/08/16 06:26:05;;;;;;;13.27;11.98;;;;;;;29.53;77.37;99861.16;5014137;28;20025;-89
2023/08/16 06:28:30;;;;;;;13.82;12.43;;;;;;;29.71;76.78;99863.47;5013682;28;20033;-88
2023/08/16 06:30:56;;;;;;;13.48;12.43;;;;;;;29.80;76.43;99843.53;5014207;28;20041;-88
2023/08/16 06:33:22;;;;;;;12.95;11.65;;;;;;;30.00;75.85;99848.22;5013496;28;20033;-88
2023/08/16 06:35:47;;;;;;;12.68;11.35;;;;;;;30.20;75.74;99859.19;5013970;28;20033;-88
2023/08/16 06:38:13;;;;;;;14.27;12.82;;;;;;;30.33;75.55;99860.13;5034725;28;20037;-88
2023/08/16 06:40:38;;;;;;;12.73;11.52;;;;;;;30.48;75.47;99851.16;4993553;28;20041;-88
2023/08/16 06:43:04;;;;;;;13.07;12.07;;;;;;;30.71;75.06;99864.31;4977397;28;20046;-89
2023/08/16 06:45:29;;;;;;;13.45;12.32;;;;;;;30.89;74.46;99859.31;4977155;28;20069;-88
2023/08/16 06:47:54;;;;;;;13.80;12.60;;;;;;;31.07;74.25;99864.16;4977347;28;20038;-88
2023/08/16 06:50:20;;;;;;;13.65;12.55;;;;;;;31.26;74.11;99874.16;4993071;28;20050;-88
2023/08/16 06:52:45;;;;;;;12.55;11.60;;;;;;;31.46;73.44;99860.00;4977121;28;20482;-89
2023/08/16 06:55:10;;;;;;;13.95;12.80;;;;;;;31.72;74.06;99868.16;4976965;28;20608;-88
2023/08/16 06:57:36;;;;;;;12.80;11.77;;;;;;;31.91;73.17;99855.78;4993178;28;20053;-88
2023/08/16 07:00:03;;;;;;;13.00;11.90;;;;;;;32.11;72.49;99860.34;4977021;28;20217;-88
2023/08/16 07:02:29;;;;;;;14.27;12.55;;;;;;;32.37;72.37;99863.06;4993167;28;20194;-88
2023/08/16 07:04:54;;;;;;;13.38;12.23;;;;;;;32.45;71.69;99852.13;4993701;28;20513;-88
2023/08/16 07:07:19;;;;;;;13.05;11.85;;;;;;;32.78;71.38;99864.69;4993053;28;20607;-88
2023/08/16 07:09:45;;;;;;;14.07;12.98;;;;;;;33.12;70.84;99873.56;4976885;28;20441;-89
2023/08/16 07:12:10;;;;;;;12.75;11.75;;;;;;;33.47;69.97;99877.59;5023354;28;20060;-88
2023/08/16 07:14:35;;;;;;;12.10;11.00;;;;;;;33.77;68.50;99852.72;5016991;28;20484;-88
2023/08/16 07:17:04;;;;;;;12.73;11.82;;;;;;;34.36;68.15;99862.28;5017068;28;20026;-89
2023/08/16 07:19:30;;;;;;;13.57;12.18;;;;;;;35.09;66.78;99874.28;5034719;28;20061;-89
2023/08/16 07:21:55;;;;;;;12.85;11.85;;;;;;;36.01;64.69;99857.88;5034807;28;20072;-89
2023/08/16 07:24:21;;;;;;;12.60;11.57;;;;;;;37.12;62.71;99875.94;5034727;28;20034;-89
2023/08/16 07:26:46;;;;;;;12.90;11.80;;;;;;;37.97;60.48;99855.31;5016840;28;20110;-89
2023/08/16 07:29:11;;;;;;;11.82;11.00;;;;;;;38.66;59.01;99860.50;5034587;28;20032;-89
2023/08/16 07:31:37;;;;;;;13.23;12.13;;;;;;;39.47;57.61;99882.53;5016732;28;20028;-89
2023/08/16 07:34:02;;;;;;;11.60;10.65;;;;;;;40.03;57.11;99880.34;5034145;28;20026;-92
2023/08/16 07:36:28;;;;;;;11.15;10.35;;;;;;;40.55;55.89;99878.91;5016490;28;20095;-89
2023/08/16 07:38:53;;;;;;;11.43;10.52;;;;;;;40.94;55.11;99879.41;5016725;28;20053;-89
2023/08/16 07:41:18;;;;;;;11.68;10.70;;;;;;;41.37;54.96;99878.22;5034416;28;20049;-88
2023/08/16 07:43:44;;;;;;;11.50;10.68;;;;;;;41.74;54.38;99874.50;5016641;28;20087;-89
2023/08/16 07:46:09;;;;;;;11.57;10.57;;;;;;;42.04;53.81;99870.97;5016706;28;20037;-90
2023/08/16 07:48:34;;;;;;;10.60;9.90;;;;;;;42.31;53.50;99872.63;5015180;28;20079;-90
2023/08/16 07:51:00;;;;;;;11.90;10.88;;;;;;;42.62;53.35;99878.88;5016128;28;20131;-89
2023/08/16 07:53:25;;;;;;;11.38;10.57;;;;;;;42.88;52.53;99876.09;5034123;28;20025;-89
2023/08/16 07:55:51;;;;;;;11.00;10.27;;;;;;;42.88;52.17;99868.69;5016220;28;20441;-89
2023/08/16 07:58:16;;;;;;;10.88;10.00;;;;;;;43.00;52.31;99873.84;5016283;28;20057;-89
2023/08/16 08:00:43;;;;;;;12.38;11.38;;;;;;;43.11;52.04;99872.75;5034235;28;20026;-90
2023/08/16 08:03:11;;;;;;;11.35;10.40;;;;;;;43.06;51.83;99867.28;5016362;28;20024;-90
2023/08/16 08:05:37;;;;;;;10.95;10.13;;;;;;;42.94;51.91;99866.75;5033772;28;20029;-90
2023/08/16 08:08:04;;;;;;;11.10;10.20;;;;;;;42.76;51.96;99868.19;5033874;28;20491;-90
2023/08/16 08:10:31;;;;;;;11.35;10.48;;;;;;;42.63;52.18;99871.47;5033567;28;20033;-90
2023/08/16 08:12:57;;;;;;;11.23;10.27;;;;;;;42.31;52.28;99870.72;5016241;28;20033;-89
2023/08/16 08:15:22;;;;;;;11.35;10.45;;;;;;;41.86;53.01;99868.81;5015792;28;20029;-89
2023/08/16 08:17:48;;;;;;;12.80;11.57;;;;;;;41.13;53.83;99869.69;5016063;28;20053;-88
2023/08/16 08:20:14;;;;;;;11.38;10.48;;;;;;;40.19;55.35;99864.97;5015975;28;20440;-87
2023/08/16 08:22:40;;;;;;;11.82;11.00;;;;;;;39.26;57.04;99869.75;5015560;28;20034;-87
2023/08/16 08:25:06;;;;;;;12.07;11.07;;;;;;;38.39;58.62;99860.34;5033508;28;20033;-89
2023/08/16 08:27:31;;;;;;;11.85;11.00;;;;;;;37.71;60.21;99870.31;5015533;28;20025;-88
2023/08/16 08:29:56;;;;;;;11.70;10.65;;;;;;;37.06;60.83;99862.50;5015912;28;20080;-87
2023/08/16 08:32:22;;;;;;;12.82;11.65;;;;;;;36.55;61.44;99869.50;5033315;28;20024;-88
2023/08/16 08:34:47;;;;;;;12.60;11.60;;;;;;;35.80;62.98;99859.19;5015593;28;20029;-86
2023/08/16 08:37:12;;;;;;;12.68;11.52;;;;;;;35.47;64.27;99880.28;5033312;28;20049;-87
2023/08/16 08:39:38;;;;;;;12.30;11.35;;;;;;;35.15;65.39;99885.03;5014564;28;20040;-87
2023/08/16 08:42:04;;;;;;;12.50;11.60;;;;;;;34.84;64.88;99885.13;5033183;28;20032;-87
2023/08/16 08:44:32;;;;;;;12.77;11.57;;;;;;;34.47;67.20;99871.53;5010460;28;20046;-89
2023/08/16 08:46:59;;;;;;;13.35;11.98;;;;;;;34.25;67.83;99882.72;4994464;28;20124;-89
2023/08/16 08:49:25;;;;;;;12.60;11.50;;;;;;;34.06;67.75;99886.44;4993928;28;20050;-89
2023/08/16 08:51:51;;;;;;;13.00;11.90;;;;;;;33.82;68.43;99892.59;5010685;28;20129;-90
2023/08/16 08:54:16;;;;;;;12.93;11.82;;;;;;;33.70;69.32;99884.34;4994412;28;20025;-90
2023/08/16 08:56:43;;;;;;;12.27;11.07;;;;;;;33.58;69.86;99894.97;4994224;28;20044;-89
2023/08/16 08:59:11;;;;;;;11.98;11.00;;;;;;;33.51;69.34;99903.13;4994210;28;20087;-89
2023/08/16 09:01:37;;;;;;;12.88;11.57;;;;;;;33.30;69.85;99897.19;5001827;28;20089;-89
2023/08/16 09:04:04;;;;;;;12.15;11.05;;;;;;;33.13;68.79;99894.94;4983061;28;20066;-88
2023/08/16 09:06:30;;;;;;;12.05;11.07;;;;;;;32.98;70.40;99886.25;4974789;28;20572;-89
2023/08/16 09:08:56;;;;;;;11.32;10.27;;;;;;;32.92;70.96;99896.03;4982526;28;20046;-89
2023/08/16 09:11:24;;;;;;;11.07;10.18;;;;;;;32.84;70.97;99893.53;4973915;28;20035;-88
2023/08/16 09:13:52;;;;;;;11.82;10.63;;;;;;;32.81;71.21;99895.81;4990465;28;20121;-88
2023/08/16 09:16:17;;;;;;;11.63;10.73;;;;;;;32.68;71.18;99883.19;4974137;28;20045;-88
2023/08/16 09:18:49;;;;;;;11.07;10.18;;;;;;;32.72;71.66;99906.84;4990159;28;20042;-88
2023/08/16 09:21:16;;;;;;;13.05;11.93;;;;;;;32.74;72.25;99901.22;4994399;28;20038;-88
2023/08/16 09:23:42;;;;;;;11.15;10.23;;;;;;;32.72;71.46;99897.91;4993306;28;20046;-88
2023/08/16 09:26:18;;;;;;;10.60;9.82;;;;;;;32.66;70.50;99894.19;5010036;28;20532;-89
2023/08/16 09:28:44;;;;;;;10.50;9.60;;;;;;;32.53;70.88;99880.69;4992660;28;20040;-88
2023/08/16 09:31:09;;;;;;;10.90;10.10;;;;;;;32.69;71.03;99903.72;4993065;28;20030;-89
2023/08/16 09:33:38;;;;;;;10.65;9.80;;;;;;;32.65;70.69;99903.31;5009233;28;20076;-89
2023/08/16 09:36:04;;;;;;;10.82;9.93;;;;;;;32.61;70.90;99893.97;5009947;28;20033;-88
2023/08/16 09:38:30;;;;;;;11.13;10.02;;;;;;;32.56;70.69;99901.03;5013743;28;20049;-89
2023/08/16 09:40:56;;;;;;;10.77;9.88;;;;;;;32.47;71.21;99898.56;5032084;28;20026;-89
2023/08/16 09:43:21;;;;;;;10.35;9.45;;;;;;;32.41;71.79;99877.00;5013882;28;20499;-89
2023/08/16 09:45:53;;;;;;;11.52;10.27;;;;;;;32.37;72.08;99873.03;5013956;28;20033;-89
2023/08/16 09:48:20;;;;;;;11.52;10.55;;;;;;;32.46;72.68;99885.28;5013903;28;20052;-89
2023/08/16 09:50:45;;;;;;;10.90;10.00;;;;;;;32.52;72.98;99890.66;5010406;28;20057;-89
2023/08/16 09:53:12;;;;;;;11.02;10.13;;;;;;;32.48;72.57;99873.25;5010489;28;20018;-88
2023/08/16 09:55:40;;;;;;;11.68;10.63;;;;;;;32.63;71.05;99883.00;5011766;28;20481;-89
2023/08/16 09:58:07;;;;;;;10.60;9.57;;;;;;;32.58;72.05;99862.06;5010503;28;20080;-89
2023/08/16 10:00:34;;;;;;;11.10;10.20;;;;;;;32.73;71.86;99880.69;5011768;28;20545;-89
2023/08/16 10:03:01;;;;;;;11.80;10.90;;;;;;;32.73;71.71;99869.91;5010317;28;20061;-88
2023/08/16 10:05:27;;;;;;;11.75;10.75;;;;;;;32.79;71.49;99883.38;5010699;28;20030;-89
2023/08/16 10:07:54;;;;;;;12.00;10.95;;;;;;;32.82;72.01;99878.59;5010699;28;20025;-88
2023/08/16 10:10:20;;;;;;;10.55;9.65;;;;;;;32.87;69.75;99874.25;4971748;28;20129;-88
2023/08/16 10:12:46;;;;;;;10.48;9.77;;;;;;;32.94;71.80;99880.47;4972267;28;20113;-88
2023/08/16 10:15:12;;;;;;;11.77;10.63;;;;;;;33.01;70.83;99873.19;4973119;28;20455;-89
2023/08/16 10:17:40;;;;;;;11.20;10.10;;;;;;;33.03;70.89;99878.34;4971647;28;20529;-88
2023/08/16 10:20:13;;;;;;;11.60;10.57;;;;;;;32.92;69.96;99877.16;4971965;28;20187;-89
2023/08/16 10:22:41;;;;;;;12.27;11.10;;;;;;;32.68;71.24;99881.31;4971610;28;20050;-88
2023/08/16 10:25:12;;;;;;;11.85;10.93;;;;;;;32.38;72.19;99853.97;4971814;28;20026;-89
2023/08/16 10:27:41;;;;;;;12.18;11.07;;;;;;;32.31;71.95;99863.88;4971458;28;20483;-89
2023/08/16 10:30:12;;;;;;;12.23;10.95;;;;;;;32.15;72.47;99858.91;4987402;28;20140;-88
2023/08/16 10:32:42;;;;;;;11.02;10.13;;;;;;;32.23;72.60;99869.47;5010321;28;20022;-89
2023/08/16 10:35:09;;;;;;;11.65;10.75;;;;;;;32.15;72.04;99850.81;5011312;28;20044;-89
2023/08/16 10:37:35;;;;;;;11.25;10.35;;;;;;;32.19;72.77;99863.69;5008771;28;20029;-89
2023/08/16 10:40:01;;;;;;;11.13;10.13;;;;;;;32.15;71.24;99872.38;4992493;28;20048;-88
2023/08/16 10:42:26;;;;;;;11.68;10.48;;;;;;;32.12;71.33;99878.22;4992513;28;20146;-89
2023/08/16 10:44:52;;;;;;;10.27;9.48;;;;;;;32.07;72.07;99870.75;4992539;28;20077;-89
2023/08/16 10:47:30;;;;;;;10.75;9.90;;;;;;;31.99;72.58;99873.63;4992489;28;20052;-88
2023/08/16 10:49:59;;;;;;;10.70;9.80;;;;;;;31.95;73.35;99873.22;4992319;28;20038;-89
2023/08/16 10:52:32;;;;;;;10.68;9.57;;;;;;;32.07;74.35;99861.81;4992508;28;20038;-88
2023/08/16 10:54:58;;;;;;;10.75;9.52;;;;;;;32.32;74.30;99887.13;4992188;28;20470;-88
2023/08/16 10:57:25;;;;;;;11.20;10.13;;;;;;;32.38;72.66;99859.38;5009103;28;20038;-88
2023/08/16 11:00:05;;;;;;;11.38;9.95;;;;;;;32.36;73.40;99850.59;4992048;28;20056;-88
2023/08/16 11:02:32;;;;;;;10.38;9.55;;;;;;;32.56;73.65;99871.38;4992323;28;20042;-89
2023/08/16 11:05:02;;;;;;;10.95;9.95;;;;;;;32.69;74.45;99880.28;4992269;28;20061;-88
2023/08/16 11:07:30;;;;;;;11.57;9.45;;;;;;;32.75;70.48;99867.84;4992404;28;20389;-88
2023/08/16 11:10:00;;;;;;;10.32;9.43;;;;;;;32.82;71.63;99873.19;5009971;28;20026;-89
2023/08/16 11:12:32;;;;;;;11.02;10.07;;;;;;;32.88;69.93;99873.19;5010149;28;20543;-89
2023/08/16 11:14:58;;;;;;;10.75;9.77;;;;;;;32.70;69.99;99860.38;5009779;28;20026;-88
2023/08/16 11:17:27;;;;;;;11.27;10.15;;;;;;;32.67;70.67;99868.06;5009821;28;20022;-88
2023/08/16 11:19:56;;;;;;;11.13;10.00;;;;;;;32.56;70.37;99880.28;5009340;28;20022;-88
2023/08/16 11:22:22;;;;;;;11.10;10.30;;;;;;;32.62;69.44;99884.88;5010138;28;20022;-88
2023/08/16 11:24:49;;;;;;;10.55;9.65;;;;;;;32.55;67.09;99881.34;4993717;28;20122;-89
2023/08/16 11:27:24;;;;;;;10.30;9.50;;;;;;;32.61;69.91;99876.97;4993019;28;20034;-89
2023/08/16 11:29:51;;;;;;;11.20;10.20;;;;;;;32.68;70.16;99859.75;4993509;28;20577;-89
2023/08/16 11:32:35;;;;;;;10.98;9.95;;;;;;;32.82;70.69;99867.81;4993693;28;20205;-89
2023/08/16 11:35:06;;;;;;;10.60;9.73;;;;;;;32.99;72.98;99871.72;4993505;28;20022;-89
2023/08/16 11:37:32;;;;;;;10.57;9.77;;;;;;;33.07;69.56;99867.97;4972784;28;20038;-89